createdAt,value
2018-04-27T00:02:15.810Z,83.30
2018-04-27T00:04:43.258Z,83.10
2018-04-27T00:07:10.742Z,84.30
2018-04-27T00:09:38.195Z,85.10
2018-04-27T00:12:05.671Z,85.70
2018-04-27T00:14:33.153Z,86.10
2018-04-27T00:17:00.614Z,88.00
2018-04-27T00:19:28.154Z,87.70
2018-04-27T00:21:56.445Z,88.80
2018-04-27T00:24:24.671Z,89.30
2018-04-27T00:26:52.153Z,89.20
2018-04-27T00:29:19.720Z,89.60
2018-04-27T00:31:47.299Z,90.00
2018-04-27T00:34:14.736Z,89.80
2018-04-27T00:36:42.970Z,90.50
2018-04-27T00:39:10.452Z,90.40
2018-04-27T00:41:37.882Z,90.40
2018-04-27T00:44:06.106Z,90.40
2018-04-27T00:46:33.569Z,90.50
2018-04-27T00:49:01.043Z,90.70
2018-04-27T00:51:28.522Z,91.00
2018-04-27T00:53:56.816Z,90.60
2018-04-27T00:56:25.033Z,90.50
2018-04-27T00:58:52.500Z,90.40
2018-04-27T01:01:19.947Z,90.60
2018-04-27T01:03:48.181Z,91.00
2018-04-27T01:06:15.626Z,91.00
2018-04-27T01:08:43.206Z,91.00
2018-04-27T01:11:11.433Z,90.90
2018-04-27T01:13:38.884Z,90.90
2018-04-27T01:16:06.362Z,90.90
2018-04-27T01:18:33.807Z,90.90
2018-04-27T01:21:02.248Z,91.40
2018-04-27T01:23:29.674Z,91.40
2018-04-27T01:25:57.840Z,91.60
2018-04-27T01:28:25.286Z,91.40
2018-04-27T01:30:52.745Z,91.50
2018-04-27T01:33:20.202Z,91.50
2018-04-27T01:35:47.666Z,91.80
2018-04-27T01:38:15.887Z,92.20
2018-04-27T01:40:43.369Z,92.20
2018-04-27T01:43:10.820Z,92.40
2018-04-27T01:45:38.294Z,92.20
2018-04-27T01:48:05.750Z,92.50
2018-04-27T01:50:34.251Z,92.90
2018-04-27T01:53:02.478Z,93.40
2018-04-27T01:55:29.967Z,93.40
2018-04-27T01:57:57.431Z,93.50
2018-04-27T02:00:24.883Z,93.30
2018-04-27T02:02:53.097Z,93.60
2018-04-27T02:05:20.562Z,93.60
2018-04-27T02:07:48.027Z,93.70
2018-04-27T02:10:15.478Z,93.90
2018-04-27T02:12:43.711Z,94.30
2018-04-27T02:15:11.273Z,94.30
2018-04-27T02:17:39.500Z,94.40
2018-04-27T02:20:06.950Z,94.40
2018-04-27T02:22:34.426Z,94.40
2018-04-27T02:25:01.866Z,94.30
2018-04-27T02:27:29.372Z,94.80
2018-04-27T02:29:56.842Z,94.70
2018-04-27T02:32:24.284Z,94.90
2018-04-27T02:34:52.529Z,94.80
2018-04-27T02:37:19.985Z,95.10
2018-04-27T02:39:47.464Z,95.00
2018-04-27T02:42:14.907Z,95.50
2018-04-27T02:44:43.136Z,94.90
2018-04-27T02:47:10.719Z,94.80
2018-04-27T02:49:38.193Z,95.10
2018-04-27T02:52:05.628Z,95.40
2018-04-27T02:54:33.882Z,95.80
2018-04-27T02:57:01.342Z,95.80
2018-04-27T02:59:28.794Z,95.60
2018-04-27T03:01:56.246Z,95.80
2018-04-27T03:04:24.582Z,96.20
2018-04-27T03:06:52.035Z,96.20
2018-04-27T03:09:19.527Z,96.00
2018-04-27T03:11:46.997Z,96.00
2018-04-27T03:14:14.435Z,96.10
2018-04-27T03:16:42.681Z,97.10
2018-04-27T03:19:10.257Z,97.10
2018-04-27T03:21:37.655Z,97.00
2018-04-27T03:24:05.136Z,96.90
2018-04-27T03:26:32.565Z,97.10
2018-04-27T03:29:00.080Z,97.40
2018-04-27T03:31:27.558Z,97.30
2018-04-27T03:33:55.015Z,97.10
2018-04-27T03:36:22.491Z,97.20
2018-04-27T03:38:49.950Z,97.20
2018-04-27T03:41:17.422Z,97.60
2018-04-27T03:43:44.873Z,97.80
2018-04-27T03:46:12.335Z,98.00
2018-04-27T03:48:40.561Z,98.40
2018-04-27T03:51:08.805Z,98.60
2018-04-27T03:53:36.242Z,98.60
2018-04-27T03:56:03.722Z,99.00
2018-04-27T03:58:31.171Z,99.10
2018-04-27T04:01:10.552Z,99.20
2018-04-27T04:03:50.026Z,99.40
2018-04-27T04:06:17.501Z,99.90
2018-04-27T04:08:45.725Z,99.90
2018-04-27T04:11:13.190Z,99.90
2018-04-27T04:13:41.401Z,99.90
2018-04-27T04:16:08.845Z,99.90
2018-04-27T04:18:37.066Z,99.90
2018-04-27T04:21:04.536Z,99.90
2018-04-27T04:23:31.976Z,99.90
2018-04-27T04:26:03.663Z,99.90
2018-04-27T04:28:31.879Z,99.90
2018-04-27T04:30:59.365Z,99.90
2018-04-27T04:33:26.895Z,99.90
2018-04-27T04:35:54.314Z,99.90
2018-04-27T04:38:21.853Z,99.90
2018-04-27T04:40:49.210Z,99.90
2018-04-27T04:43:16.662Z,99.90
2018-04-27T04:45:44.141Z,99.90
2018-04-27T04:48:11.598Z,99.90
2018-04-27T04:50:39.057Z,99.90
2018-04-27T04:53:06.543Z,99.90
2018-04-27T04:55:33.955Z,99.90
2018-04-27T04:58:01.433Z,99.90
2018-04-27T05:00:28.903Z,99.90
2018-04-27T05:02:56.449Z,99.90
2018-04-27T05:05:23.822Z,99.90
2018-04-27T05:07:51.285Z,99.90
2018-04-27T05:10:18.727Z,99.90
2018-04-27T05:12:46.950Z,99.90
2018-04-27T05:15:15.007Z,99.90
2018-04-27T05:17:43.241Z,99.90
2018-04-27T05:20:10.220Z,99.90
2018-04-27T05:22:37.681Z,99.90
2018-04-27T05:25:05.125Z,99.90
2018-04-27T05:27:32.596Z,99.90
2018-04-27T05:30:00.771Z,99.90
2018-04-27T05:32:28.998Z,99.90
2018-04-27T05:34:56.464Z,99.90
2018-04-27T05:37:23.923Z,99.90
2018-04-27T05:39:51.392Z,99.20
2018-04-27T05:42:19.603Z,96.80
2018-04-27T05:44:47.075Z,96.40
2018-04-27T05:47:14.550Z,95.00
2018-04-27T05:49:42.019Z,94.20
2018-04-27T05:52:09.491Z,93.90
2018-04-27T05:54:37.737Z,92.50
2018-04-27T05:57:05.186Z,92.50
2018-04-27T05:59:32.675Z,91.90
2018-04-27T06:02:00.140Z,91.10
2018-04-27T06:04:27.607Z,90.30
2018-04-27T06:06:55.407Z,88.50
2018-04-27T06:09:22.885Z,87.50
2018-04-27T06:11:50.434Z,88.20
2018-04-27T06:14:18.633Z,90.90
2018-04-27T06:16:46.087Z,90.90
2018-04-27T06:19:14.394Z,90.80
2018-04-27T06:21:42.882Z,91.00
2018-04-27T06:24:10.342Z,91.00
2018-04-27T06:26:42.559Z,91.50
2018-04-27T06:29:10.166Z,91.50
2018-04-27T06:31:37.679Z,91.60
2018-04-27T06:34:05.958Z,91.10
2018-04-27T06:36:33.432Z,91.10
2018-04-27T06:39:00.918Z,91.20
2018-04-27T06:41:29.151Z,91.10
2018-04-27T06:43:56.776Z,91.10
2018-04-27T06:46:24.239Z,91.60
2018-04-27T06:48:51.693Z,91.40
2018-04-27T06:51:19.146Z,91.60
2018-04-27T06:53:46.619Z,90.70
2018-04-27T06:56:14.078Z,89.60
2018-04-27T06:58:42.318Z,88.90
2018-04-27T07:01:09.762Z,88.70
2018-04-27T07:03:37.272Z,86.50
2018-04-27T07:06:08.379Z,84.80
2018-04-27T07:08:36.614Z,82.80
2018-04-27T07:11:04.142Z,82.70
2018-04-27T07:13:32.366Z,81.30
2018-04-27T07:15:59.903Z,81.30
2018-04-27T07:18:27.384Z,80.40
2018-04-27T07:20:54.851Z,80.00
2018-04-27T07:23:22.302Z,80.00
2018-04-27T07:25:49.806Z,78.80
2018-04-27T07:28:17.254Z,77.30
2018-04-27T07:30:44.707Z,76.40
2018-04-27T07:33:12.180Z,77.20
2018-04-27T07:35:39.647Z,75.90
2018-04-27T07:38:07.135Z,75.00
2018-04-27T07:40:34.720Z,73.60
2018-04-27T07:43:02.277Z,72.70
2018-04-27T07:45:29.720Z,71.60
2018-04-27T07:47:58.030Z,72.60
2018-04-27T07:50:26.282Z,75.60
2018-04-27T07:52:53.730Z,75.50
2018-04-27T07:55:21.249Z,76.00
2018-04-27T07:57:48.675Z,73.50
2018-04-27T08:00:16.119Z,70.90
2018-04-27T08:02:44.414Z,70.60
2018-04-27T08:05:11.854Z,69.10
2018-04-27T08:07:39.319Z,69.60
2018-04-27T08:10:06.784Z,67.50
2018-04-27T08:12:34.279Z,65.60
2018-04-27T08:15:01.713Z,64.30
2018-04-27T08:17:29.535Z,64.20
2018-04-27T08:19:56.988Z,60.60
2018-04-27T08:22:24.608Z,59.20
2018-04-27T08:24:52.821Z,61.00
2018-04-27T08:27:20.282Z,61.00
2018-04-27T08:29:48.536Z,58.50
2018-04-27T08:32:16.016Z,58.50
2018-04-27T08:34:43.465Z,58.30
2018-04-27T08:37:10.939Z,56.50
2018-04-27T08:39:38.419Z,56.70
2018-04-27T08:42:05.846Z,56.00
2018-04-27T08:44:34.082Z,57.00
2018-04-27T08:47:01.521Z,57.00
2018-04-27T08:49:29.726Z,57.20
2018-04-27T08:51:57.179Z,57.20
2018-04-27T08:54:24.647Z,55.90
2018-04-27T08:56:52.117Z,55.90
2018-04-27T08:59:19.629Z,53.80
2018-04-27T09:01:47.198Z,53.50
2018-04-27T09:04:15.503Z,52.70
2018-04-27T09:06:43.716Z,53.00
2018-04-27T09:09:11.202Z,53.00
2018-04-27T09:11:38.669Z,52.60
2018-04-27T09:14:07.646Z,51.80
2018-04-27T09:16:35.906Z,51.80
2018-04-27T09:19:03.384Z,51.60
2018-04-27T09:21:30.836Z,51.50
2018-04-27T09:23:58.288Z,49.90
2018-04-27T09:26:25.744Z,49.20
2018-04-27T09:28:53.218Z,49.60
2018-04-27T09:31:20.796Z,49.20
2018-04-27T09:33:48.234Z,50.80
2018-04-27T09:36:16.062Z,50.00
2018-04-27T09:38:43.499Z,50.20
2018-04-27T09:41:11.733Z,47.90
2018-04-27T09:43:39.199Z,47.80
2018-04-27T09:46:06.671Z,48.60
2018-04-27T09:48:34.107Z,51.40
2018-04-27T09:51:01.575Z,51.80
2018-04-27T09:53:29.304Z,46.50
2018-04-27T09:55:56.767Z,45.80
2018-04-27T09:58:24.222Z,47.30
2018-04-27T10:00:52.480Z,44.80
2018-04-27T10:03:20.044Z,44.80
2018-04-27T10:05:47.595Z,44.60
2018-04-27T10:08:14.982Z,45.00
2018-04-27T10:10:42.487Z,46.10
2018-04-27T10:13:09.952Z,45.40
2018-04-27T10:15:37.602Z,46.30
2018-04-27T10:18:05.822Z,42.30
2018-04-27T10:20:33.305Z,42.30
2018-04-27T10:23:00.791Z,42.50
2018-04-27T10:28:01.898Z,40.40
2018-04-27T10:30:29.345Z,42.20
2018-04-27T10:32:56.830Z,43.50
2018-04-27T10:35:24.277Z,40.90
2018-04-27T10:37:51.838Z,39.90
2018-04-27T10:40:20.035Z,41.10
2018-04-27T10:42:47.518Z,41.00
2018-04-27T10:45:14.997Z,39.80
2018-04-27T10:47:42.481Z,40.40
2018-04-27T10:50:10.032Z,41.00
2018-04-27T10:52:37.608Z,40.40
2018-04-27T10:55:05.840Z,42.30
2018-04-27T10:57:34.210Z,42.30
2018-04-27T11:00:02.507Z,42.40
2018-04-27T11:02:29.963Z,41.40
2018-04-27T11:04:57.471Z,42.00
2018-04-27T11:07:24.935Z,42.30
2018-04-27T11:09:52.373Z,41.10
2018-04-27T11:12:20.580Z,42.50
2018-04-27T11:14:48.059Z,42.50
2018-04-27T11:17:16.278Z,42.40
2018-04-27T11:19:43.834Z,41.80
2018-04-27T11:22:12.067Z,41.00
2018-04-27T11:24:39.546Z,41.00
2018-04-27T11:27:06.986Z,40.70
2018-04-27T11:29:34.501Z,41.90
2018-04-27T11:32:02.725Z,43.10
2018-04-27T11:34:31.033Z,44.70
2018-04-27T11:36:59.228Z,44.80
2018-04-27T11:39:26.719Z,44.80
2018-04-27T11:41:54.215Z,44.40
2018-04-27T11:44:21.698Z,44.50
2018-04-27T11:46:49.191Z,45.50
2018-04-27T11:49:16.641Z,45.90
2018-04-27T11:51:44.100Z,45.70
2018-04-27T11:54:11.518Z,45.10
2018-04-27T11:56:38.980Z,45.70
2018-04-27T11:59:06.448Z,44.80
2018-04-27T12:01:33.921Z,45.60
2018-04-27T12:04:01.392Z,46.30
2018-04-27T12:06:28.876Z,45.50
2018-04-27T12:08:56.319Z,45.20
2018-04-27T12:11:23.784Z,45.40
2018-04-27T12:13:51.268Z,44.50
2018-04-27T12:16:18.712Z,44.00
2018-04-27T12:18:46.938Z,44.20
2018-04-27T12:21:14.393Z,44.10
2018-04-27T12:23:45.613Z,44.20
2018-04-27T12:26:13.160Z,44.30
2018-04-27T12:28:40.553Z,43.80
2018-04-27T12:31:08.037Z,43.70
2018-04-27T12:33:35.513Z,43.80
2018-04-27T12:36:03.700Z,46.40
2018-04-27T12:38:31.228Z,46.40
2018-04-27T12:40:59.435Z,44.90
2018-04-27T12:43:26.913Z,44.90
2018-04-27T12:45:54.476Z,44.50
2018-04-27T12:48:22.769Z,44.60
2018-04-27T12:50:50.961Z,45.80
2018-04-27T12:53:18.446Z,45.70
2018-04-27T12:55:45.874Z,46.00
2018-04-27T12:58:13.340Z,46.10
2018-04-27T13:00:40.784Z,45.70
2018-04-27T13:03:08.335Z,45.90
2018-04-27T13:05:36.565Z,44.30
2018-04-27T13:08:04.025Z,44.30
2018-04-27T13:10:31.497Z,44.40
2018-04-27T13:12:58.947Z,44.50
2018-04-27T13:15:26.426Z,44.20
2018-04-27T13:17:53.878Z,43.80
2018-04-27T13:20:22.107Z,44.00
2018-04-27T13:22:49.564Z,44.00
2018-04-27T13:25:17.031Z,44.80
2018-04-27T13:27:45.245Z,44.90
2018-04-27T13:30:12.743Z,44.90
2018-04-27T13:32:40.235Z,44.50
2018-04-27T13:35:07.684Z,44.10
2018-04-27T13:37:35.850Z,45.20
2018-04-27T13:40:04.082Z,44.60
2018-04-27T13:42:31.556Z,44.60
2018-04-27T13:44:59.022Z,44.30
2018-04-27T13:47:26.489Z,42.90
2018-04-27T13:49:53.949Z,42.30
2018-04-27T13:52:21.435Z,43.10
2018-04-27T13:54:48.887Z,43.80
2018-04-27T13:57:17.169Z,44.30
2018-04-27T13:59:44.568Z,44.30
2018-04-27T14:02:12.038Z,44.30
2018-04-27T14:07:17.997Z,44.60
2018-04-27T14:09:45.506Z,44.60
2018-04-27T14:12:12.929Z,43.70
2018-04-27T14:14:40.477Z,44.40
2018-04-27T14:17:07.945Z,43.70
2018-04-27T14:19:35.451Z,43.00
2018-04-27T14:22:02.972Z,43.40
2018-04-27T14:24:30.467Z,43.90
2018-04-27T14:26:58.849Z,44.10
2018-04-27T14:29:26.527Z,44.10
2018-04-27T14:31:54.368Z,43.50
2018-04-27T14:34:21.893Z,43.50
2018-04-27T14:36:50.400Z,43.50
2018-04-27T14:39:17.959Z,43.50
2018-04-27T14:41:46.205Z,44.10
2018-04-27T14:44:13.676Z,44.20
2018-04-27T14:46:41.207Z,44.60
2018-04-27T14:49:08.852Z,44.80
2018-04-27T14:51:36.442Z,44.60
2018-04-27T14:54:03.999Z,44.30
2018-04-27T14:56:31.525Z,44.10
2018-04-27T14:58:59.834Z,44.50
2018-04-27T15:01:27.504Z,44.50
2018-04-27T15:03:55.022Z,44.80
2018-04-27T15:06:22.513Z,44.70
2018-04-27T15:08:50.050Z,44.40
2018-04-27T15:11:17.617Z,44.40
2018-04-27T15:13:45.158Z,44.30
2018-04-27T15:16:12.611Z,44.60
2018-04-27T15:18:40.060Z,44.50
2018-04-27T15:21:07.775Z,44.70
2018-04-27T15:23:35.222Z,45.00
2018-04-27T15:26:02.800Z,45.30
2018-04-27T15:28:30.294Z,45.00
2018-04-27T15:30:57.775Z,45.40
2018-04-27T15:33:25.220Z,45.00
2018-04-27T15:35:52.716Z,45.50
2018-04-27T15:38:20.290Z,46.30
2018-04-27T15:40:47.800Z,46.20
2018-04-27T15:43:16.077Z,46.30
2018-04-27T15:45:43.574Z,46.20
2018-04-27T15:48:11.824Z,46.00
2018-04-27T15:50:39.327Z,46.00
2018-04-27T15:53:06.888Z,46.30
2018-04-27T15:55:34.769Z,46.10
2018-04-27T15:58:02.377Z,45.40
2018-04-27T16:00:29.874Z,45.10
2018-04-27T16:02:58.297Z,45.20
2018-04-27T16:05:26.264Z,45.10
2018-04-27T16:07:54.748Z,45.60
2018-04-27T16:23:17.293Z,45.40
2018-04-27T16:25:44.777Z,46.60
2018-04-27T16:28:12.345Z,45.80
2018-04-27T16:30:39.972Z,46.40
2018-04-27T16:33:07.517Z,46.70
2018-04-27T16:35:35.679Z,45.80
2018-04-27T16:38:04.657Z,46.50
2018-04-27T16:40:32.183Z,46.50
2018-04-27T16:42:59.703Z,46.60
2018-04-27T16:45:27.385Z,46.60
2018-04-27T16:47:54.840Z,46.40
2018-04-27T16:50:27.098Z,46.60
2018-04-27T16:52:54.639Z,46.90
2018-04-27T16:55:22.989Z,47.20
2018-04-27T16:57:50.871Z,47.20
2018-04-27T17:00:18.986Z,46.30
2018-04-27T17:02:50.871Z,46.50
2018-04-27T17:05:18.414Z,45.20
2018-04-27T17:07:45.921Z,45.40
2018-04-27T17:10:13.620Z,44.50
2018-04-27T17:12:41.656Z,44.50
2018-04-27T17:15:09.158Z,44.90
2018-04-27T17:22:40.192Z,45.40
2018-04-27T17:25:09.222Z,45.30
2018-04-27T17:27:37.595Z,45.50
2018-04-27T17:30:05.437Z,45.40
2018-04-27T17:32:33.035Z,46.00
2018-04-27T17:35:00.672Z,45.80
2018-04-27T17:37:28.189Z,45.90
2018-04-27T17:39:55.674Z,46.00
2018-04-27T17:42:23.265Z,46.00
2018-04-27T17:44:50.913Z,46.20
2018-04-27T17:47:18.677Z,45.80
2018-04-27T17:49:47.982Z,46.10
2018-04-27T17:52:15.528Z,46.30
2018-04-27T17:54:43.048Z,46.10
2018-04-27T17:59:42.309Z,46.30
2018-04-27T18:02:10.097Z,46.50
2018-04-27T18:04:37.766Z,46.60
2018-04-27T18:07:05.883Z,46.50
2018-04-27T18:09:33.426Z,46.90
2018-04-27T18:12:01.407Z,46.90
2018-04-27T18:14:29.213Z,47.00
2018-04-27T18:16:57.271Z,46.90
2018-04-27T18:19:24.948Z,46.90
2018-04-27T18:21:53.436Z,47.30
2018-04-27T18:24:21.212Z,47.20
2018-04-27T18:26:49.622Z,47.70
2018-04-27T18:29:17.424Z,47.70
2018-04-27T18:31:45.858Z,47.60
2018-04-27T18:34:13.565Z,47.00
2018-04-27T18:36:41.371Z,47.20
2018-04-27T18:41:41.578Z,47.80
2018-04-27T18:44:09.385Z,48.20
2018-04-27T18:46:41.110Z,48.70
2018-04-27T18:49:10.471Z,49.00
2018-04-27T18:51:38.764Z,49.10
2018-04-27T18:54:10.146Z,49.30
2018-04-27T18:59:10.999Z,49.70
2018-04-27T19:01:39.466Z,50.80
2018-04-27T19:04:07.065Z,49.80
2018-04-27T19:06:34.694Z,50.20
2018-04-27T19:09:03.161Z,50.70
2018-04-27T19:11:30.759Z,50.70
2018-04-27T19:13:58.357Z,51.30
2018-04-27T19:16:30.285Z,51.30
2018-04-27T19:19:04.536Z,51.60
2018-04-27T19:21:32.157Z,52.00
2018-04-27T19:23:59.611Z,52.20
2018-04-27T19:26:27.098Z,52.90
2018-04-27T19:28:55.203Z,53.20
2018-04-27T19:31:22.730Z,53.80
2018-04-27T19:33:51.061Z,54.60
2018-04-27T19:36:18.541Z,54.10
2018-04-27T19:38:46.012Z,54.00
2018-04-27T19:41:13.733Z,54.50
2018-04-27T19:43:41.337Z,55.00
2018-04-27T19:46:08.780Z,55.50
2018-04-27T19:48:36.285Z,56.10
2018-04-27T19:51:03.731Z,56.10
2018-04-27T19:53:31.203Z,56.70
2018-04-27T19:55:59.429Z,57.40
2018-04-27T19:58:27.033Z,57.40
2018-04-27T20:00:54.519Z,57.90
2018-04-27T20:03:22.049Z,58.50
2018-04-27T20:05:49.556Z,57.80
2018-04-27T20:08:21.449Z,57.70
2018-04-27T20:10:49.772Z,58.90
2018-04-27T20:13:19.477Z,59.20
2018-04-27T20:16:02.379Z,59.20
2018-04-27T20:18:29.906Z,59.70
2018-04-27T20:21:00.865Z,60.00
2018-04-27T20:23:34.945Z,60.10
2018-04-27T20:26:06.053Z,60.00
2018-04-27T20:28:38.154Z,60.50
2018-04-27T20:31:05.676Z,61.10
2018-04-27T20:33:33.170Z,61.70
2018-04-27T20:36:05.363Z,61.90
2018-04-27T20:38:33.647Z,62.50
2018-04-27T20:41:18.441Z,62.90
2018-04-27T20:43:46.731Z,62.90
2018-04-27T20:46:14.244Z,63.60
2018-04-27T20:48:43.431Z,64.90
2018-04-27T20:51:12.272Z,65.70
2018-04-27T20:53:41.583Z,65.70
2018-04-27T20:56:09.052Z,66.30
2018-04-27T20:58:36.521Z,66.70
2018-04-27T21:01:03.998Z,66.70
2018-04-27T21:03:32.211Z,68.10
2018-04-27T21:05:59.708Z,68.00
2018-04-27T21:08:27.247Z,68.20
2018-04-27T21:10:54.757Z,69.00
2018-04-27T21:13:23.042Z,68.90
2018-04-27T21:15:50.536Z,68.90
2018-04-27T21:18:18.003Z,69.30
2018-04-27T21:20:45.514Z,69.40
2018-04-27T21:23:13.767Z,70.40
2018-04-27T21:25:44.774Z,70.80
2018-04-27T21:28:14.196Z,70.70
2018-04-27T21:30:45.403Z,70.50
2018-04-27T21:33:13.010Z,70.80
2018-04-27T21:35:49.857Z,71.70
2018-04-27T21:41:21.833Z,72.60
2018-04-27T21:43:50.959Z,72.50
2018-04-27T21:46:26.235Z,72.20
2018-04-27T21:48:54.330Z,71.50
2018-04-27T21:54:32.760Z,71.60
2018-04-27T21:57:20.771Z,72.20
2018-04-27T21:59:54.853Z,72.20
2018-04-27T22:05:44.809Z,74.60
2018-04-27T22:08:29.902Z,76.00
2018-04-27T22:11:00.117Z,77.50
2018-04-27T22:13:28.461Z,78.70
2018-04-27T22:15:55.936Z,79.10
2018-04-27T22:18:23.437Z,78.90
2018-04-27T22:20:52.745Z,79.00
2018-04-27T22:23:21.027Z,79.60
2018-04-27T22:25:48.504Z,79.40
2018-04-27T22:28:36.752Z,79.10
2018-04-27T22:31:05.612Z,78.80
2018-04-27T22:33:36.576Z,78.70
2018-04-27T22:36:27.260Z,78.50
2018-04-27T22:42:07.772Z,77.90
2018-04-27T22:44:41.935Z,77.90
2018-04-27T22:47:11.161Z,77.70
2018-04-27T22:49:38.634Z,78.00
2018-04-27T22:52:06.144Z,78.10
2018-04-27T22:54:56.181Z,78.20
2018-04-27T22:57:25.367Z,79.70
2018-04-27T23:02:50.126Z,81.40
2018-04-27T23:05:30.204Z,81.20
2018-04-27T23:07:59.270Z,81.30
2018-04-27T23:10:26.732Z,81.20
2018-04-27T23:13:00.854Z,81.10
2018-04-27T23:15:36.980Z,81.00
2018-04-27T23:18:07.958Z,81.00
2018-04-27T23:20:35.418Z,81.40
2018-04-27T23:23:06.461Z,82.10
2018-04-27T23:25:34.643Z,82.10
2018-04-27T23:28:02.122Z,82.70
2018-04-27T23:30:31.162Z,83.10
2018-04-27T23:32:59.381Z,83.50
2018-04-27T23:35:26.842Z,83.50
2018-04-27T23:37:54.329Z,83.90
2018-04-27T23:40:21.773Z,83.80
2018-04-27T23:42:49.234Z,84.10
2018-04-27T23:45:16.687Z,84.20
2018-04-27T23:47:45.930Z,84.00
2018-04-27T23:50:14.163Z,84.10
2018-04-27T23:52:41.614Z,84.10
2018-04-27T23:55:09.064Z,83.90
2018-04-27T23:57:36.674Z,84.20
